Time;durP1;ratioP1;P1;durP2;ratioP2;P2;SDS_P1;SDS_P2;PMS_P1;PMS_P2;Temp;Humidity;BMP_temperature;BMP_pressure;BME280_temperature;BME280_humidity;BME280_pressure;Samples;Min_cycle;Max_cycle;Signal;HPM_P1;HPM_P2
2023/11/11 00:00:19;;;;;;;;;1.00;0.00;;;;;8.57;85.82;100441.25;5040759;28;54598;-64
2023/11/11 00:02:44;;;;;;;;;2.00;2.00;;;;;8.55;86.16;100455.50;5057536;28;73301;-64
2023/11/11 00:05:09;;;;;;;;;5.33;4.00;;;;;8.52;86.27;100451.22;5053919;28;45795;-64
2023/11/11 00:07:35;;;;;;;;;3.67;3.00;;;;;8.50;86.39;100458.38;5055310;28;45343;-64
2023/11/11 00:10:00;;;;;;;;;4.67;4.00;;;;;8.48;86.54;100462.88;5057506;28;74928;-64
2023/11/11 00:12:26;;;;;;;;;2.00;2.00;;;;;8.45;86.92;100463.00;5055660;28;45472;-64
2023/11/11 00:14:51;;;;;;;;;3.67;2.00;;;;;8.41;86.76;100456.13;5060223;28;64080;-64
2023/11/11 00:17:17;;;;;;;;;3.67;3.00;;;;;8.40;87.25;100463.22;5061413;28;45295;-65
2023/11/11 00:19:43;;;;;;;;;8.00;5.00;;;;;8.38;87.16;100456.25;5065972;28;46589;-64
2023/11/11 00:22:10;;;;;;;;;3.00;3.00;;;;;8.36;87.11;100460.78;5060723;28;45434;-64
2023/11/11 00:24:35;;;;;;;;;6.00;3.67;;;;;8.34;87.21;100465.28;5064574;28;45460;-65
2023/11/11 00:27:01;;;;;;;;;4.00;2.33;;;;;8.31;87.53;100457.50;5055622;28;45565;-64
2023/11/11 00:29:26;;;;;;;;;3.67;2.00;;;;;8.31;87.45;100463.63;5064888;28;56128;-64
2023/11/11 00:31:51;;;;;;;;;2.00;2.00;;;;;8.26;87.87;100455.88;5062325;28;46921;-65
2023/11/11 00:34:18;;;;;;;;;4.00;2.67;;;;;8.25;87.97;100458.63;5063428;28;45430;-65
2023/11/11 00:36:45;;;;;;;;;4.00;3.67;;;;;8.24;87.92;100456.91;5060353;28;45331;-65
2023/11/11 00:39:11;;;;;;;;;5.00;3.00;;;;;8.22;88.17;100466.72;5057031;28;47305;-64
2023/11/11 00:41:37;;;;;;;;;2.67;2.67;;;;;8.20;88.66;100458.84;5062650;28;48553;-65
2023/11/11 00:44:04;;;;;;;;;4.00;2.00;;;;;8.18;88.52;100459.84;5088692;27;45540;-64
2023/11/11 00:46:29;;;;;;;;;2.00;2.00;;;;;8.16;88.77;100459.03;5068035;28;45708;-65
2023/11/11 00:48:55;;;;;;;;;1.67;1.67;;;;;8.14;89.12;100468.84;5060059;28;45307;-65
2023/11/11 00:51:20;;;;;;;;;4.33;2.00;;;;;8.13;89.18;100469.78;5042097;28;72417;-65
2023/11/11 00:53:47;;;;;;;;;3.00;1.00;;;;;8.11;89.03;100472.50;5061537;28;45756;-64
2023/11/11 00:56:12;;;;;;;;;3.00;1.00;;;;;8.09;89.26;100477.84;5058860;28;45568;-65
2023/11/11 00:58:38;;;;;;;;;1.67;1.00;;;;;8.09;88.99;100469.06;5060280;28;46399;-65
2023/11/11 01:01:03;;;;;;;;;2.00;1.00;;;;;8.06;89.66;100464.75;5063802;28;50841;-65
2023/11/11 01:03:28;;;;;;;;;1.00;1.00;;;;;8.06;89.53;100470.06;5049323;28;69065;-65
2023/11/11 01:05:54;;;;;;;;;3.33;2.33;;;;;8.04;89.83;100471.91;5089907;27;46191;-65
2023/11/11 01:08:19;;;;;;;;;1.00;1.00;;;;;8.02;89.57;100463.19;5068565;28;71866;-65
2023/11/11 01:10:45;;;;;;;;;2.33;1.33;;;;;8.02;89.63;100467.63;5061730;28;45605;-65
2023/11/11 01:13:11;;;;;;;;;2.33;2.33;;;;;8.03;89.75;100471.97;5091835;27;45571;-65
2023/11/11 01:15:37;;;;;;;;;1.67;1.67;;;;;8.02;89.56;100483.53;5061052;28;45345;-65
2023/11/11 01:18:02;;;;;;;;;3.00;3.00;;;;;8.01;89.79;100479.16;5066043;28;45524;-65
2023/11/11 01:20:28;;;;;;;;;1.33;1.00;;;;;8.01;89.65;100482.63;5067217;28;45386;-65
2023/11/11 01:22:54;;;;;;;;;2.00;2.00;;;;;7.99;89.38;100476.56;5091633;27;59873;-65
2023/11/11 01:25:21;;;;;;;;;4.33;3.00;;;;;8.00;89.93;100485.34;5092866;27;45654;-65
2023/11/11 01:27:46;;;;;;;;;2.67;2.67;;;;;8.03;90.02;100487.88;5059625;28;46006;-65
2023/11/11 01:30:12;;;;;;;;;4.00;2.00;;;;;8.08;90.70;100483.22;5065917;28;46579;-64
2023/11/11 01:32:38;;;;;;;;;3.00;3.00;;;;;8.19;90.09;100482.75;5058880;28;45298;-64
2023/11/11 01:35:03;;;;;;;;;3.00;2.00;;;;;8.25;89.82;100485.09;5059435;28;45303;-65
2023/11/11 01:37:29;;;;;;;;;1.00;1.00;;;;;8.30;89.79;100479.63;5066443;28;46819;-65
2023/11/11 01:39:54;;;;;;;;;1.00;1.00;;;;;8.35;89.80;100482.91;5060335;28;45450;-65
2023/11/11 01:42:20;;;;;;;;;1.00;1.00;;;;;8.38;89.58;100483.66;5061380;28;45342;-65
2023/11/11 01:44:45;;;;;;;;;1.00;1.00;;;;;8.40;89.19;100479.13;5059971;28;68334;-65
2023/11/11 01:47:10;;;;;;;;;1.00;1.00;;;;;8.40;88.93;100488.88;5062437;28;45976;-65
2023/11/11 01:49:39;;;;;;;;;1.00;1.00;;;;;8.37;89.20;100481.03;5057837;28;73116;-65
2023/11/11 01:52:07;;;;;;;;;3.00;1.33;;;;;8.34;89.14;100482.03;5058752;28;68277;-65
2023/11/11 01:54:33;;;;;;;;;2.00;1.00;;;;;8.30;89.35;100475.16;5056183;28;45720;-65
2023/11/11 01:56:59;;;;;;;;;0.33;0.33;;;;;8.27;89.37;100484.13;5060926;28;50240;-65
2023/11/11 01:59:26;;;;;;;;;4.00;1.00;;;;;8.24;89.41;100486.06;5060261;28;45872;-65
2023/11/11 02:01:51;;;;;;;;;1.00;1.00;;;;;8.21;89.40;100488.84;5059888;28;45505;-65
2023/11/11 02:04:17;;;;;;;;;0.33;0.33;;;;;8.18;89.31;100488.97;5053820;28;45598;-65
2023/11/11 02:06:46;;;;;;;;;1.33;1.00;;;;;8.16;89.60;100480.22;5091618;27;46055;-65
2023/11/11 02:09:14;;;;;;;;;2.00;0.67;;;;;8.13;89.82;100486.53;5088094;27;45429;-65
2023/11/11 02:11:40;;;;;;;;;1.33;1.33;;;;;8.13;90.02;100490.97;5061112;28;45534;-65
2023/11/11 02:14:05;;;;;;;;;2.67;2.00;;;;;8.12;89.88;100498.03;5060706;28;45670;-65
2023/11/11 02:16:34;;;;;;;;;2.67;1.00;;;;;8.12;90.07;100500.69;5059954;28;45588;-64
2023/11/11 02:19:00;;;;;;;;;0.33;0.33;;;;;8.15;90.41;100500.59;5060429;28;45425;-65
2023/11/11 02:21:29;;;;;;;;;2.00;1.33;;;;;8.21;90.31;100489.72;5060864;28;45580;-65
2023/11/11 02:23:56;;;;;;;;;2.00;0.67;;;;;8.27;90.25;100499.16;5065135;28;45575;-65
2023/11/11 02:26:21;;;;;;;;;3.67;1.00;;;;;8.29;89.89;100499.94;5058752;28;62688;-65
2023/11/11 02:28:46;;;;;;;;;1.67;1.67;;;;;8.27;90.05;100493.88;5062551;28;73079;-65
2023/11/11 02:31:12;;;;;;;;;2.00;2.00;;;;;8.24;90.04;100500.16;5059216;28;68042;-65
2023/11/11 02:33:37;;;;;;;;;2.00;2.00;;;;;8.21;90.28;100510.03;5084016;27;68025;-65
2023/11/11 02:36:06;;;;;;;;;3.67;3.00;;;;;8.17;90.08;100501.34;5051034;28;74499;-64
2023/11/11 02:38:31;;;;;;;;;4.00;2.00;;;;;8.15;90.07;100510.28;5063072;28;45433;-64
2023/11/11 02:40:57;;;;;;;;;2.67;2.67;;;;;8.12;90.16;100503.34;5064085;28;45673;-64
2023/11/11 02:43:22;;;;;;;;;2.00;2.00;;;;;8.15;90.64;100494.41;5060865;28;45613;-65
2023/11/11 02:45:47;;;;;;;;;4.00;2.67;;;;;8.16;90.50;100496.13;5057939;28;73308;-65
2023/11/11 02:48:13;;;;;;;;;2.00;2.00;;;;;8.14;90.34;100503.31;5060283;28;72037;-65
2023/11/11 02:50:38;;;;;;;;;3.00;2.00;;;;;8.14;90.53;100498.00;5057452;28;69432;-65
2023/11/11 02:53:03;;;;;;;;;2.67;2.00;;;;;8.15;90.76;100500.59;5064115;28;63765;-65
2023/11/11 02:55:28;;;;;;;;;1.00;1.00;;;;;8.19;90.77;100498.66;5062218;28;46805;-65
2023/11/11 02:57:54;;;;;;;;;2.67;2.67;;;;;8.19;90.62;100498.66;5090131;27;72928;-65
2023/11/11 03:00:21;;;;;;;;;5.00;5.00;;;;;8.18;90.42;100497.78;5059981;28;45880;-65
2023/11/11 03:02:46;;;;;;;;;4.67;4.00;;;;;8.17;90.56;100497.84;5064970;28;45570;-64
2023/11/11 03:05:11;;;;;;;;;4.00;4.00;;;;;8.14;90.54;100505.94;5057612;28;66466;-64
2023/11/11 03:07:37;;;;;;;;;5.33;3.67;;;;;8.14;90.51;100513.91;5064654;28;45451;-65
2023/11/11 03:10:04;;;;;;;;;6.33;5.00;;;;;8.17;91.27;100508.44;5058351;28;45434;-64
2023/11/11 03:12:30;;;;;;;;;5.33;4.00;;;;;8.22;91.05;100511.75;5062886;28;45635;-65
2023/11/11 03:14:56;;;;;;;;;6.00;4.00;;;;;8.28;90.69;100511.50;5061952;28;45369;-64
2023/11/11 03:17:21;;;;;;;;;4.00;2.67;;;;;8.34;90.76;100516.50;5057498;28;45407;-65
2023/11/11 03:19:47;;;;;;;;;6.33;4.33;;;;;8.40;90.64;100518.88;5059982;28;58976;-65
2023/11/11 03:22:12;;;;;;;;;2.00;2.00;;;;;8.45;90.58;100526.63;5061459;28;67433;-65
2023/11/11 03:24:37;;;;;;;;;6.00;3.67;;;;;8.51;90.36;100525.50;5059496;28;70223;-65
2023/11/11 03:27:03;;;;;;;;;5.00;3.67;;;;;8.54;90.41;100526.25;5059575;28;72191;-64
2023/11/11 03:29:29;;;;;;;;;8.00;5.00;;;;;8.58;90.13;100524.31;5062244;28;45482;-65
2023/11/11 03:31:54;;;;;;;;;8.33;4.00;;;;;8.60;90.05;100533.03;5058181;28;45520;-65
2023/11/11 03:34:19;;;;;;;;;4.67;3.67;;;;;8.64;89.99;100547.03;5059751;28;75387;-65
2023/11/11 03:36:44;;;;;;;;;4.33;3.00;;;;;8.68;89.75;100546.81;5057487;28;73255;-65
2023/11/11 03:39:10;;;;;;;;;2.67;1.33;;;;;8.71;89.43;100540.53;5053726;28;69122;-66
2023/11/11 03:41:35;;;;;;;;;1.00;1.00;;;;;8.72;89.23;100545.75;5058227;28;45653;-65
2023/11/11 03:44:01;;;;;;;;;0.67;0.67;;;;;8.72;89.15;100536.91;5060102;28;75423;-65
2023/11/11 03:46:26;;;;;;;;;1.67;0.00;;;;;8.71;88.81;100530.75;5062339;28;45307;-65
2023/11/11 03:48:51;;;;;;;;;0.33;0.00;;;;;8.69;88.71;100537.06;5059050;28;45548;-66
2023/11/11 03:51:17;;;;;;;;;1.00;1.00;;;;;8.65;88.90;100536.34;5066634;28;70525;-64
2023/11/11 03:53:42;;;;;;;;;4.00;1.00;;;;;8.60;88.97;100533.91;5062645;28;46233;-65
2023/11/11 03:56:08;;;;;;;;;1.00;1.00;;;;;8.59;89.24;100549.88;5056993;28;72015;-65
2023/11/11 03:58:35;;;;;;;;;1.67;1.00;;;;;8.59;88.80;100542.78;5062641;28;66569;-65
2023/11/11 04:01:00;;;;;;;;;1.00;1.00;;;;;8.60;88.96;100535.69;5064748;28;45715;-65
2023/11/11 04:03:25;;;;;;;;;1.00;1.00;;;;;8.58;89.15;100540.22;5060984;28;46463;-65
2023/11/11 04:05:51;;;;;;;;;0.33;0.33;;;;;8.60;89.12;100547.19;5067803;28;45252;-65
2023/11/11 04:08:16;;;;;;;;;1.00;1.00;;;;;8.61;88.58;100545.38;5059424;28;45408;-65
2023/11/11 04:10:42;;;;;;;;;0.33;0.33;;;;;8.62;88.88;100547.09;5063230;28;45208;-65
2023/11/11 04:13:09;;;;;;;;;1.00;1.00;;;;;8.62;88.80;100539.16;5062012;28;45540;-65
2023/11/11 04:15:34;;;;;;;;;1.33;1.33;;;;;8.56;88.19;100550.88;5066846;28;45490;-65
2023/11/11 04:17:59;;;;;;;;;0.00;0.00;;;;;8.51;88.48;100550.22;5046626;28;45941;-65
2023/11/11 04:20:25;;;;;;;;;1.00;1.00;;;;;8.50;88.78;100551.16;5064172;28;68343;-65
2023/11/11 04:22:50;;;;;;;;;0.00;0.00;;;;;8.54;89.19;100554.53;5065096;28;45303;-65
2023/11/11 04:25:16;;;;;;;;;1.00;0.00;;;;;8.57;89.20;100567.66;5063368;28;62876;-65
2023/11/11 04:27:42;;;;;;;;;1.00;1.00;;;;;8.59;89.11;100564.00;5062296;28;45475;-65
2023/11/11 04:30:09;;;;;;;;;0.00;0.00;;;;;8.64;89.29;100571.72;5063705;28;45323;-66
2023/11/11 04:32:34;;;;;;;;;1.00;1.00;;;;;8.69;89.37;100572.38;5063237;28;46558;-65
2023/11/11 04:35:00;;;;;;;;;1.00;1.00;;;;;8.73;89.35;100567.81;5065239;28;45326;-65
2023/11/11 04:37:26;;;;;;;;;3.00;1.00;;;;;8.73;88.67;100575.75;5061295;28;45284;-65
2023/11/11 04:39:55;;;;;;;;;3.00;1.67;;;;;8.74;88.31;100578.34;5066379;28;69032;-65
2023/11/11 04:42:20;;;;;;;;;1.00;1.00;;;;;8.73;88.43;100578.41;5065364;28;45429;-65
2023/11/11 04:44:46;;;;;;;;;2.00;2.00;;;;;8.71;88.25;100578.50;5052957;28;72813;-65
2023/11/11 04:47:12;;;;;;;;;2.67;2.67;;;;;8.69;88.26;100574.19;5062476;28;45362;-65
2023/11/11 04:49:37;;;;;;;;;1.00;0.33;;;;;8.68;88.26;100568.03;5062508;28;45564;-65
2023/11/11 04:52:06;;;;;;;;;1.00;1.00;;;;;8.70;88.53;100570.63;5058464;28;51891;-65
2023/11/11 04:54:34;;;;;;;;;1.00;1.00;;;;;8.71;88.16;100570.53;5056865;28;45557;-65
2023/11/11 04:56:59;;;;;;;;;2.00;1.00;;;;;8.71;87.87;100573.19;5058069;28;69122;-65
2023/11/11 04:59:29;;;;;;;;;0.67;0.67;;;;;8.67;87.34;100566.31;5062211;28;45559;-65
2023/11/11 05:01:54;;;;;;;;;1.00;1.00;;;;;8.61;87.34;100572.72;5040256;28;48819;-64
2023/11/11 05:04:20;;;;;;;;;2.00;1.00;;;;;8.54;87.15;100575.72;5050137;28;45363;-64
2023/11/11 05:06:46;;;;;;;;;0.00;0.00;;;;;8.46;87.37;100572.56;5061306;28;45545;-64
2023/11/11 05:09:11;;;;;;;;;1.00;1.00;;;;;8.39;87.16;100577.25;5065419;28;67534;-65
2023/11/11 05:11:38;;;;;;;;;0.00;0.00;;;;;8.33;87.38;100581.06;5060593;28;45991;-65
2023/11/11 05:14:07;;;;;;;;;1.00;1.00;;;;;8.31;87.68;100579.41;5077767;27;45786;-65
2023/11/11 05:16:43;;;;;;;;;0.00;0.00;;;;;8.30;87.67;100581.16;5059770;28;45384;-64
2023/11/11 05:19:09;;;;;;;;;1.00;1.00;;;;;8.28;88.09;100577.75;5057505;28;45456;-64
2023/11/11 05:21:35;;;;;;;;;2.00;0.33;;;;;8.26;87.88;100580.44;5058773;28;45343;-65
2023/11/11 05:24:01;;;;;;;;;1.00;0.00;;;;;8.26;87.94;100587.53;5060658;28;73186;-64
2023/11/11 05:26:30;;;;;;;;;0.67;0.67;;;;;8.24;87.80;100592.06;5059467;28;45530;-64
2023/11/11 05:28:56;;;;;;;;;3.33;1.00;;;;;8.23;87.83;100590.34;5062739;28;45389;-65
2023/11/11 05:31:22;;;;;;;;;1.00;1.00;;;;;8.20;87.71;100591.31;5062062;28;50197;-65
2023/11/11 05:33:49;;;;;;;;;0.00;0.00;;;;;8.19;87.85;100588.75;5063901;28;45449;-65
2023/11/11 05:36:16;;;;;;;;;2.00;1.00;;;;;8.19;87.71;100580.81;5058616;28;45599;-64
2023/11/11 05:38:41;;;;;;;;;0.67;0.00;;;;;8.19;87.79;100599.34;5061204;28;45596;-64
2023/11/11 05:41:06;;;;;;;;;1.00;1.00;;;;;8.17;87.72;100593.25;5061146;28;75318;-64
2023/11/11 05:43:31;;;;;;;;;2.00;1.00;;;;;8.15;87.97;100595.06;5060607;28;53348;-65
2023/11/11 05:45:57;;;;;;;;;2.00;1.00;;;;;8.11;88.11;100600.53;5091472;27;68876;-65
2023/11/11 05:48:22;;;;;;;;;0.67;0.67;;;;;8.07;88.31;100601.59;5057755;28;70408;-66
2023/11/11 05:50:48;;;;;;;;;0.33;0.33;;;;;8.04;88.63;100607.00;5061627;28;45950;-65
2023/11/11 05:53:14;;;;;;;;;1.00;1.00;;;;;8.04;88.61;100606.16;5060477;28;45391;-64
2023/11/11 05:55:39;;;;;;;;;1.00;1.00;;;;;8.03;88.81;100605.28;5058473;28;46528;-65
2023/11/11 05:58:04;;;;;;;;;1.00;1.00;;;;;8.04;88.86;100614.09;5087631;27;45465;-65
2023/11/11 06:00:30;;;;;;;;;0.00;0.00;;;;;8.03;88.85;100605.28;5057869;28;75516;-65
2023/11/11 06:02:55;;;;;;;;;1.00;1.00;;;;;8.04;89.00;100606.16;5059892;28;72302;-65
2023/11/11 06:05:21;;;;;;;;;1.00;0.67;;;;;8.01;88.72;100612.44;5069916;28;69186;-65
2023/11/11 06:07:47;;;;;;;;;1.00;1.00;;;;;7.99;88.67;100626.66;5060342;28;45570;-65
2023/11/11 06:10:12;;;;;;;;;1.00;1.00;;;;;7.97;88.83;100625.88;5062519;28;62628;-65
2023/11/11 06:12:37;;;;;;;;;1.67;1.67;;;;;7.95;88.97;100625.94;5089245;27;45656;-65
2023/11/11 06:15:08;;;;;;;;;1.00;1.00;;;;;7.95;88.73;100641.81;5054066;28;45896;-65
2023/11/11 06:17:33;;;;;;;;;1.00;1.00;;;;;7.99;88.96;100647.84;5088230;27;45377;-65
2023/11/11 06:19:59;;;;;;;;;1.00;1.00;;;;;8.04;88.86;100641.44;5057237;28;46230;-65
2023/11/11 06:22:24;;;;;;;;;3.00;1.67;;;;;8.09;88.69;100634.16;5085580;27;45535;-66
2023/11/11 06:24:49;;;;;;;;;1.00;1.00;;;;;8.14;88.42;100635.78;5056868;28;45750;-65
2023/11/11 06:27:15;;;;;;;;;1.33;0.33;;;;;8.16;87.78;100640.09;5058183;28;69326;-65
2023/11/11 06:29:40;;;;;;;;;0.67;0.67;;;;;8.16;87.93;100636.56;5058885;28;75768;-65
2023/11/11 06:32:05;;;;;;;;;1.00;1.00;;;;;8.15;87.73;100635.69;5061955;28;73367;-65
2023/11/11 06:34:31;;;;;;;;;0.67;0.67;;;;;8.14;87.92;100630.47;5061448;28;69390;-66
2023/11/11 06:36:57;;;;;;;;;0.00;0.00;;;;;8.15;87.77;100634.81;5062126;28;45442;-65
2023/11/11 06:39:22;;;;;;;;;0.33;0.33;;;;;8.15;87.69;100637.47;5062408;28;45642;-65
2023/11/11 06:41:47;;;;;;;;;1.00;1.00;;;;;8.15;87.65;100634.81;5059993;28;47248;-64
2023/11/11 06:44:13;;;;;;;;;2.00;0.67;;;;;8.15;87.92;100648.06;5054571;28;61722;-64
2023/11/11 06:46:38;;;;;;;;;1.00;1.00;;;;;8.15;88.05;100648.94;5060907;28;45728;-64
2023/11/11 06:49:03;;;;;;;;;0.00;0.00;;;;;8.16;87.99;100647.16;5053353;28;73597;-64
2023/11/11 06:51:30;;;;;;;;;2.00;1.33;;;;;8.17;88.01;100648.88;5059686;28;72503;-64
2023/11/11 06:53:56;;;;;;;;;0.67;0.67;;;;;8.18;87.58;100646.16;5061225;28;45248;-64
2023/11/11 06:56:21;;;;;;;;;1.00;1.00;;;;;8.20;87.79;100654.03;5055422;28;45364;-64
2023/11/11 06:58:46;;;;;;;;;4.33;2.00;;;;;8.21;87.60;100654.00;5063694;28;75336;-64
2023/11/11 07:01:12;;;;;;;;;3.33;1.33;;;;;8.21;87.66;100651.34;5058732;28;70429;-64
2023/11/11 07:03:39;;;;;;;;;4.00;2.00;;;;;8.23;87.26;100656.56;5048379;28;69471;-64
2023/11/11 07:06:05;;;;;;;;;1.33;1.33;;;;;8.24;87.18;100660.94;5057860;28;45508;-64
2023/11/11 07:08:31;;;;;;;;;0.67;0.67;;;;;8.23;87.07;100654.78;5063828;28;46366;-64
2023/11/11 07:10:57;;;;;;;;;3.00;1.00;;;;;8.27;87.15;100659.00;5058315;28;45376;-64
2023/11/11 07:13:23;;;;;;;;;2.00;1.33;;;;;8.34;86.94;100664.91;5058653;28;45364;-64
2023/11/11 07:15:49;;;;;;;;;4.00;2.00;;;;;8.41;86.96;100671.69;5091416;27;45536;-64
2023/11/11 07:18:15;;;;;;;;;1.00;1.00;;;;;8.50;86.89;100669.59;5059296;28;46618;-66
2023/11/11 07:20:40;;;;;;;;;2.00;2.00;;;;;8.60;86.91;100681.50;5056378;28;45405;-66
2023/11/11 07:23:06;;;;;;;;;1.00;0.67;;;;;8.68;86.21;100678.53;5059523;28;45454;-59
2023/11/11 07:25:33;;;;;;;;;2.00;1.33;;;;;8.76;86.53;100689.66;5064114;28;67617;-61
2023/11/11 07:27:59;;;;;;;;;2.67;1.00;;;;;8.83;86.01;100698.22;5060433;28;46368;-61
2023/11/11 07:30:24;;;;;;;;;1.33;1.00;;;;;8.86;86.00;100690.13;5057834;28;45918;-61
2023/11/11 07:32:52;;;;;;;;;1.00;1.00;;;;;8.90;85.50;100694.34;5060732;28;45588;-60
2023/11/11 07:35:17;;;;;;;;;2.00;2.00;;;;;8.89;85.55;100688.19;5058497;28;45639;-61
2023/11/11 07:37:46;;;;;;;;;3.33;2.00;;;;;8.90;85.49;100699.66;5064026;27;48353;-61
2023/11/11 07:40:13;;;;;;;;;1.67;1.67;;;;;8.92;85.40;100703.13;5059661;28;45244;-62
2023/11/11 07:42:39;;;;;;;;;1.00;1.00;;;;;8.91;85.38;100699.59;5058533;28;45294;-61
2023/11/11 07:45:05;;;;;;;;;3.00;1.00;;;;;8.92;85.46;100705.78;5060173;28;45429;-61
2023/11/11 07:47:31;;;;;;;;;1.67;1.00;;;;;8.93;85.55;100696.88;5057303;28;49753;-63
2023/11/11 07:49:57;;;;;;;;;2.00;1.00;;;;;8.94;85.56;100698.59;5056299;28;45457;-64
2023/11/11 07:52:23;;;;;;;;;2.00;1.00;;;;;8.93;85.64;100710.16;5058920;28;45461;-64
2023/11/11 07:54:48;;;;;;;;;1.67;1.67;;;;;8.93;85.66;100713.66;5058949;28;45296;-62
2023/11/11 07:57:15;;;;;;;;;1.33;1.00;;;;;8.93;85.55;100724.25;5065230;28;45453;-63
2023/11/11 07:59:43;;;;;;;;;1.00;1.00;;;;;8.94;85.47;100722.47;5059006;28;45394;-62
2023/11/11 08:02:12;;;;;;;;;2.00;2.00;;;;;8.96;85.92;100717.97;5061320;28;45378;-62
2023/11/11 08:04:38;;;;;;;;;3.67;1.33;;;;;8.98;85.68;100717.88;5059517;28;45319;-62
2023/11/11 08:07:04;;;;;;;;;3.00;1.00;;;;;8.99;85.77;100719.63;5061104;28;45490;-64
2023/11/11 08:09:31;;;;;;;;;1.67;1.67;;;;;8.98;86.06;100717.88;5058862;28;45508;-63
2023/11/11 08:11:56;;;;;;;;;3.00;2.00;;;;;9.04;85.89;100726.44;5059474;28;45440;-64
2023/11/11 08:14:22;;;;;;;;;4.00;2.33;;;;;9.09;85.59;100732.41;5058356;28;45364;-63
2023/11/11 08:16:47;;;;;;;;;2.00;2.00;;;;;9.15;85.84;100725.09;5062143;28;47185;-63
2023/11/11 08:19:12;;;;;;;;;2.33;2.00;;;;;9.17;85.40;100724.09;5064011;28;45620;-63
2023/11/11 08:21:38;;;;;;;;;0.67;0.67;;;;;9.19;85.66;100722.25;5066423;28;52757;-63
2023/11/11 08:24:05;;;;;;;;;0.67;0.67;;;;;9.26;86.07;100723.66;5056125;28;45481;-63
2023/11/11 08:26:30;;;;;;;;;1.67;1.67;;;;;9.32;85.80;100732.28;5058102;28;46405;-63
2023/11/11 08:28:56;;;;;;;;;2.00;1.67;;;;;9.38;85.50;100732.00;5052678;28;45323;-60
2023/11/11 08:31:21;;;;;;;;;2.00;0.67;;;;;9.49;85.83;100731.50;5056432;28;45441;-60
2023/11/11 08:33:47;;;;;;;;;2.00;2.00;;;;;9.58;85.54;100739.91;5060831;28;45320;-60
2023/11/11 08:36:12;;;;;;;;;1.00;1.00;;;;;9.69;85.54;100735.91;5057475;28;73416;-60
2023/11/11 08:38:38;;;;;;;;;1.33;1.33;;;;;9.78;84.88;100746.09;5059092;28;46149;-60
2023/11/11 08:41:03;;;;;;;;;1.33;1.33;;;;;9.87;84.87;100739.47;5057034;28;45530;-61
2023/11/11 08:43:29;;;;;;;;;3.00;1.00;;;;;9.97;84.39;100734.56;5053758;28;70484;-60
2023/11/11 08:45:57;;;;;;;;;3.00;2.00;;;;;10.04;84.38;100723.56;5034073;28;45374;-60
2023/11/11 08:48:23;;;;;;;;;2.67;2.00;;;;;10.09;83.63;100726.84;5051417;28;45232;-60
2023/11/11 08:50:48;;;;;;;;;1.00;1.00;;;;;10.10;83.10;100725.94;5061093;28;45316;-60
2023/11/11 08:53:14;;;;;;;;;4.00;2.00;;;;;10.10;83.12;100725.03;5060059;28;48246;-60
2023/11/11 08:55:39;;;;;;;;;2.33;2.33;;;;;10.10;83.30;100723.28;5060418;28;48784;-60
2023/11/11 08:58:05;;;;;;;;;3.00;1.33;;;;;10.16;82.97;100740.69;5027616;28;47354;-60
2023/11/11 09:00:32;;;;;;;;;4.00;1.00;;;;;10.21;82.94;100741.34;5045137;28;45497;-60
2023/11/11 09:02:57;;;;;;;;;4.00;2.00;;;;;10.29;83.19;100740.97;5071676;28;45324;-60
2023/11/11 09:05:23;;;;;;;;;2.00;1.00;;;;;10.34;82.54;100732.72;5042448;28;45905;-59
2023/11/11 09:07:49;;;;;;;;;1.00;1.00;;;;;10.35;82.50;100724.75;5060879;28;45348;-59
2023/11/11 09:10:14;;;;;;;;;2.00;2.00;;;;;10.41;82.50;100727.06;5060403;28;45429;-59
2023/11/11 09:12:39;;;;;;;;;5.33;3.00;;;;;10.48;82.30;100729.41;5064583;28;48899;-59
2023/11/11 09:15:05;;;;;;;;;2.67;2.33;;;;;10.53;82.27;100728.28;5060453;28;70534;-63
2023/11/11 09:17:31;;;;;;;;;0.33;0.33;;;;;10.58;81.79;100725.34;5060750;28;45471;-59
2023/11/11 09:19:57;;;;;;;;;7.67;6.00;;;;;10.64;82.06;100737.47;5061864;28;45542;-59
2023/11/11 09:22:25;;;;;;;;;2.67;2.67;;;;;10.70;81.43;100732.72;5025553;28;45193;-60
2023/11/11 09:24:51;;;;;;;;;1.33;1.33;;;;;10.72;81.47;100730.81;5056883;28;45312;-60
2023/11/11 09:27:17;;;;;;;;;4.00;1.67;;;;;10.79;81.42;100718.06;5063819;28;45350;-62
2023/11/11 09:29:42;;;;;;;;;2.67;1.33;;;;;10.88;81.23;100724.72;5040731;28;45417;-61
2023/11/11 09:32:08;;;;;;;;;1.33;1.33;;;;;10.90;80.57;100726.34;5043651;28;70427;-61
2023/11/11 09:34:33;;;;;;;;;2.00;2.00;;;;;10.92;80.57;100720.94;5059501;28;45558;-61
2023/11/11 09:36:59;;;;;;;;;3.00;3.00;;;;;11.01;80.59;100722.25;5059693;28;45257;-61
2023/11/11 09:39:24;;;;;;;;;2.00;2.00;;;;;11.14;80.43;100719.81;5092862;27;45381;-61
2023/11/11 09:41:49;;;;;;;;;3.00;3.00;;;;;11.20;79.97;100727.47;5057733;28;64874;-61
2023/11/11 09:44:15;;;;;;;;;2.67;2.67;;;;;11.22;79.70;100720.25;5057324;28;68691;-61
2023/11/11 09:46:54;;;;;;;;;4.00;3.00;;;;;11.23;79.18;100727.31;5059593;28;62285;-61
2023/11/11 09:49:20;;;;;;;;;4.00;2.67;;;;;11.21;79.21;100719.41;5058626;28;45330;-61
2023/11/11 09:51:47;;;;;;;;;1.67;1.67;;;;;11.23;79.50;100724.63;5058627;28;45644;-61
2023/11/11 09:54:12;;;;;;;;;2.67;2.67;;;;;11.29;79.69;100731.44;5058028;28;45536;-62
2023/11/11 09:56:42;;;;;;;;;2.00;2.00;;;;;11.35;79.44;100725.78;5058501;28;46497;-62
2023/11/11 09:59:12;;;;;;;;;4.00;2.00;;;;;11.42;79.53;100730.69;5056748;28;45483;-62
2023/11/11 10:01:44;;;;;;;;;2.33;2.33;;;;;11.51;79.29;100720.47;5057731;28;45519;-62
2023/11/11 10:04:12;;;;;;;;;3.00;1.00;;;;;11.59;78.79;100728.91;5061375;28;46242;-61
2023/11/11 10:06:37;;;;;;;;;4.00;3.00;;;;;11.63;78.77;100727.78;5057782;28;45584;-62
2023/11/11 10:09:04;;;;;;;;;5.00;3.33;;;;;11.69;78.50;100732.78;5057953;28;45412;-61
2023/11/11 10:11:32;;;;;;;;;3.00;3.00;;;;;11.74;77.81;100727.19;5060430;28;46770;-62
2023/11/11 10:13:58;;;;;;;;;5.00;3.00;;;;;11.83;78.01;100729.31;5066723;28;45633;-61
2023/11/11 10:16:25;;;;;;;;;3.00;1.67;;;;;11.91;77.63;100719.09;5058106;28;45419;-61
2023/11/11 10:18:58;;;;;;;;;5.00;2.00;;;;;12.06;76.92;100724.53;5066458;28;45392;-61
2023/11/11 10:21:23;;;;;;;;;3.00;2.00;;;;;12.82;77.13;100725.44;5064822;28;45774;-62
2023/11/11 10:23:54;;;;;;;;;1.33;1.00;;;;;13.89;74.69;100728.53;5061903;28;46464;-62
2023/11/11 10:26:20;;;;;;;;;2.00;2.00;;;;;14.82;72.81;100733.13;5059012;28;45375;-62
2023/11/11 10:28:49;;;;;;;;;4.00;2.00;;;;;15.50;71.50;100727.47;5058937;28;45409;-62
2023/11/11 10:31:15;;;;;;;;;1.67;1.67;;;;;16.17;70.38;100719.03;5057661;28;45359;-63
2023/11/11 10:33:42;;;;;;;;;2.00;1.00;;;;;16.79;67.69;100718.84;5057461;28;45835;-63
2023/11/11 10:36:08;;;;;;;;;1.67;1.67;;;;;17.46;64.16;100720.78;5040947;28;45394;-63
2023/11/11 10:38:33;;;;;;;;;3.00;2.00;;;;;17.99;62.50;100728.16;5037894;28;45528;-62
2023/11/11 10:40:59;;;;;;;;;2.67;2.67;;;;;17.90;60.69;100723.53;5056868;28;70309;-64
2023/11/11 10:43:27;;;;;;;;;2.00;2.00;;;;;17.77;61.72;100734.44;5055473;28;75516;-63
2023/11/11 10:45:56;;;;;;;;;1.00;1.00;;;;;18.02;59.75;100735.13;5065110;28;45229;-64
2023/11/11 10:48:22;;;;;;;;;3.00;2.00;;;;;18.39;60.67;100729.38;5058327;28;46031;-63
2023/11/11 10:50:50;;;;;;;;;1.33;1.00;;;;;18.72;59.62;100729.31;5038916;28;45422;-64
2023/11/11 10:53:17;;;;;;;;;2.67;2.67;;;;;18.90;59.65;100729.63;5039155;28;46430;-62
2023/11/11 10:55:44;;;;;;;;;1.67;1.67;;;;;19.01;56.54;100738.47;5038010;28;45423;-63
2023/11/11 10:58:10;;;;;;;;;0.67;0.67;;;;;19.11;56.65;100738.53;5043285;28;45745;-63
2023/11/11 11:00:37;;;;;;;;;1.67;0.67;;;;;19.15;56.38;100737.28;5039575;28;46004;-64
2023/11/11 11:03:03;;;;;;;;;0.67;0.67;;;;;19.31;55.71;100731.38;5056208;28;46237;-63
2023/11/11 11:06:21;;;;;;;;;0.67;0.67;;;;;19.16;56.93;100741.69;5039340;28;70602;-64
2023/11/11 11:08:52;;;;;;;;;2.67;0.67;;;;;18.64;54.37;100725.47;4994263;28;46533;-64
2023/11/11 11:12:02;;;;;;;;;0.00;0.00;;;;;18.03;56.60;100734.16;5055285;28;45532;-64
2023/11/11 11:14:35;;;;;;;;;0.67;0.67;;;;;17.61;55.70;100726.75;5032349;28;46749;-63
2023/11/11 11:17:01;;;;;;;;;0.67;0.67;;;;;17.65;56.24;100722.84;5057486;28;49176;-63
2023/11/11 11:19:26;;;;;;;;;0.00;0.00;;;;;17.88;55.60;100720.09;5040500;28;45682;-63
2023/11/11 11:21:52;;;;;;;;;1.33;1.33;;;;;17.92;54.97;100715.31;5041546;28;66218;-66
2023/11/11 11:24:18;;;;;;;;;1.67;0.67;;;;;17.72;54.55;100709.75;5039250;28;45532;-63
2023/11/11 11:26:44;;;;;;;;;1.00;0.67;;;;;17.34;55.50;100709.16;5052146;28;45594;-63